Trenton, Kentucky
Current Conditions -  °F | °C
As of 10:52 AM on Friday 31 Oct 2014 (Local Time) from KCKV Reporting Station
Overcast Overcast  
Wind Chill: 50°   Ceiling: 4000
Heat Index: 50°   Visibility: 10mi
Dew Point: 45°   Wind: 12mph
Humidity: 83%   Direction: 340°NNW
Pressure: 30.06"   Gusts: NA
Location:  36.72°N, 87.26°W
Report Text: KCKV 311552Z AUTO 34010KT 10SM FEW015 SCT030 OVC040 10/07 A3006 RMK AO2 SLP180 T01000072
Loading
Personal Weather Stations






























Interactive Weather Map
Tropical Storm Tracking
New forecast layout! Learn more

10-Day Weather Forecast

Advertisements
Track Severe Weather on mobile